Time;durP1;ratioP1;P1;durP2;ratioP2;P2;SDS_P1;SDS_P2;PMS_P1;PMS_P2;Temp;Humidity;BMP_temperature;BMP_pressure;BME280_temperature;BME280_humidity;BME280_pressure;Samples;Min_cycle;Max_cycle;Signal;HPM_P1;HPM_P2
2023/04/08 00:01:28;;;;;;;17.55;5.75;;;;;;;16.93;44.46;101985.06;4953728;28;20437;-66
2023/04/08 00:03:53;;;;;;;11.30;5.93;;;;;;;16.91;44.92;101973.53;4951785;28;20055;-65
2023/04/08 00:06:18;;;;;;;16.13;5.65;;;;;;;16.89;44.94;101974.53;4951693;28;20035;-65
2023/04/08 00:08:44;;;;;;;9.90;5.70;;;;;;;16.89;44.07;101974.53;4951746;28;20031;-65
2023/04/08 00:11:09;;;;;;;14.05;5.95;;;;;;;16.92;44.34;101984.19;4951672;28;20031;-65
2023/04/08 00:13:36;;;;;;;11.23;5.78;;;;;;;16.92;44.71;101983.38;4951550;28;20042;-65
2023/04/08 00:16:02;;;;;;;11.00;5.43;;;;;;;16.89;44.26;101977.22;4951871;28;20026;-66
2023/04/08 00:18:28;;;;;;;14.88;6.28;;;;;;;16.87;43.88;101981.94;4967475;28;20031;-65
2023/04/08 00:20:53;;;;;;;15.55;5.63;;;;;;;16.89;44.89;101993.47;4935634;29;20561;-65
2023/04/08 00:23:20;;;;;;;11.77;5.55;;;;;;;16.88;44.55;101993.63;4952747;28;20043;-65
2023/04/08 00:25:45;;;;;;;13.63;5.80;;;;;;;16.86;44.92;101991.03;4919861;28;20046;-65
2023/04/08 00:28:11;;;;;;;13.32;6.18;;;;;;;16.87;44.69;101987.34;4953025;28;20394;-65
2023/04/08 00:30:37;;;;;;;14.57;5.60;;;;;;;16.87;44.41;101987.34;4935418;29;20035;-66
2023/04/08 00:33:03;;;;;;;20.08;6.45;;;;;;;16.87;45.28;101991.91;4950272;28;20035;-65
2023/04/08 00:35:28;;;;;;;16.13;6.15;;;;;;;16.85;45.72;101994.75;4952463;28;20042;-65
2023/04/08 00:37:54;;;;;;;13.43;5.93;;;;;;;16.85;44.22;102000.19;4935116;29;20035;-64
2023/04/08 00:40:19;;;;;;;10.35;5.68;;;;;;;16.86;44.91;101996.44;4951589;29;20121;-65
2023/04/08 00:42:45;;;;;;;8.52;5.05;;;;;;;16.85;44.47;101992.06;4951260;28;20042;-65
2023/04/08 00:45:10;;;;;;;16.15;5.80;;;;;;;16.81;44.50;101990.63;4952558;28;20031;-65
2023/04/08 00:47:37;;;;;;;8.20;4.68;;;;;;;16.83;44.64;102002.13;4951115;28;20031;-66
2023/04/08 00:50:03;;;;;;;9.27;5.55;;;;;;;16.80;44.97;101997.03;4952135;28;20023;-65
2023/04/08 00:52:28;;;;;;;12.95;5.75;;;;;;;16.80;44.93;101997.03;4951317;28;20479;-66
2023/04/08 00:54:54;;;;;;;12.77;5.15;;;;;;;16.82;44.71;101999.59;4935082;29;20096;-65
2023/04/08 00:57:20;;;;;;;13.57;6.28;;;;;;;16.80;45.15;101997.03;4950813;28;20035;-65
2023/04/08 00:59:45;;;;;;;11.18;6.00;;;;;;;16.81;45.57;101997.88;4935050;29;20089;-66
2023/04/08 01:02:29;;;;;;;10.05;5.28;;;;;;;16.81;44.22;102003.28;4935657;29;20436;-62
2023/04/08 01:04:59;;;;;;;11.57;5.50;;;;;;;16.78;45.58;101999.00;4951121;28;20442;-61
2023/04/08 01:07:33;;;;;;;18.70;6.05;;;;;;;16.79;45.15;102003.44;4952865;28;20028;-62
2023/04/08 01:10:28;;;;;;;10.70;6.13;;;;;;;16.77;45.36;101996.47;4951164;28;20121;-61
2023/04/08 01:12:56;;;;;;;18.52;6.53;;;;;;;16.77;45.46;102005.44;4952963;28;20498;-61
2023/04/08 01:15:24;;;;;;;14.60;6.10;;;;;;;16.76;44.30;102005.56;4949706;28;20143;-61
2023/04/08 01:17:53;;;;;;;14.77;6.57;;;;;;;16.76;45.80;101995.59;4950736;28;20046;-62
2023/04/08 01:20:18;;;;;;;13.15;6.38;;;;;;;16.74;45.85;102000.31;4950867;28;20031;-61
2023/04/08 01:23:06;;;;;;;16.23;5.95;;;;;;;16.74;44.69;102000.31;4951083;28;20394;-62
2023/04/08 01:25:38;;;;;;;11.80;6.03;;;;;;;16.72;44.95;101999.56;4951810;28;20026;-61
2023/04/08 01:28:09;;;;;;;11.15;5.95;;;;;;;16.69;45.59;101994.47;4935210;29;20035;-62
2023/04/08 01:30:37;;;;;;;12.98;6.20;;;;;;;16.68;45.66;101998.16;4950588;28;20402;-61
2023/04/08 01:33:04;;;;;;;12.25;6.45;;;;;;;16.69;45.79;101999.00;4950846;28;20051;-62
2023/04/08 01:35:30;;;;;;;17.30;6.85;;;;;;;16.70;45.15;102004.28;4953933;28;20031;-61
2023/04/08 01:37:56;;;;;;;11.20;6.05;;;;;;;16.68;45.15;101992.75;4953808;28;20043;-62
2023/04/08 01:40:21;;;;;;;13.13;6.53;;;;;;;16.63;45.59;101989.59;4954302;29;20034;-62
2023/04/08 01:42:47;;;;;;;20.25;6.22;;;;;;;16.65;45.11;101998.44;4953876;28;20032;-62
2023/04/08 01:45:13;;;;;;;9.98;6.28;;;;;;;16.59;45.08;101993.56;4969738;28;20533;-62
2023/04/08 01:47:39;;;;;;;17.55;6.10;;;;;;;16.58;45.96;101993.72;4954889;28;20035;-62
2023/04/08 01:50:07;;;;;;;18.42;6.63;;;;;;;16.55;45.21;101985.88;4937964;29;20514;-62
2023/04/08 01:52:34;;;;;;;14.07;5.90;;;;;;;16.58;45.22;101999.97;4953502;28;20111;-62
2023/04/08 01:55:00;;;;;;;13.73;6.32;;;;;;;16.58;45.98;101991.84;4954084;29;20059;-61
2023/04/08 01:57:27;;;;;;;12.88;6.35;;;;;;;16.59;44.74;101993.56;4937605;29;20066;-62
2023/04/08 01:59:56;;;;;;;12.93;5.88;;;;;;;16.59;45.03;102000.81;4953715;28;20042;-62
2023/04/08 02:02:23;;;;;;;13.55;6.10;;;;;;;16.59;46.03;101998.97;4953522;28;20426;-61
2023/04/08 02:04:49;;;;;;;14.38;6.50;;;;;;;16.57;45.11;101995.56;4937573;28;20043;-62
2023/04/08 02:07:15;;;;;;;12.55;6.10;;;;;;;16.56;45.89;101993.84;4954135;29;20034;-62
2023/04/08 02:09:41;;;;;;;19.60;5.95;;;;;;;16.58;45.80;101999.97;4954794;28;20062;-62
2023/04/08 02:12:06;;;;;;;14.77;6.00;;;;;;;16.58;44.87;101997.25;4937902;29;20040;-62
2023/04/08 02:14:32;;;;;;;17.02;6.78;;;;;;;16.57;45.57;101995.56;4953452;28;20055;-61
2023/04/08 02:17:25;;;;;;;16.60;7.63;;;;;;;16.57;45.00;102003.69;4937386;29;20482;-61
2023/04/08 02:20:05;;;;;;;10.55;6.60;;;;;;;16.54;45.80;102001.25;4939400;28;20138;-61
2023/04/08 02:22:51;;;;;;;11.98;5.65;;;;;;;16.58;45.53;102013.50;4953167;28;20029;-62
2023/04/08 02:25:21;;;;;;;15.63;6.88;;;;;;;16.57;44.68;102006.38;4937592;29;20077;-62
2023/04/08 02:27:48;;;;;;;12.88;7.03;;;;;;;16.55;45.71;102002.97;4937286;29;20038;-62
2023/04/08 02:30:14;;;;;;;14.82;7.03;;;;;;;16.55;45.72;102008.38;4953203;28;20498;-62
2023/04/08 02:32:40;;;;;;;13.15;6.35;;;;;;;16.57;44.91;102011.81;4937073;29;20031;-62
2023/04/08 02:35:06;;;;;;;17.38;8.05;;;;;;;16.55;45.39;102007.53;4937032;29;20115;-61
2023/04/08 02:37:31;;;;;;;14.65;7.18;;;;;;;16.55;46.08;102016.50;4952936;28;20023;-62
2023/04/08 02:39:57;;;;;;;14.30;6.43;;;;;;;16.55;44.75;102008.38;4954642;28;20106;-62
2023/04/08 02:42:22;;;;;;;16.58;6.57;;;;;;;16.54;45.69;102009.38;4968879;28;20498;-62
2023/04/08 02:44:48;;;;;;;17.80;7.15;;;;;;;16.55;46.10;102010.22;4952241;28;20119;-61
2023/04/08 02:47:13;;;;;;;17.27;6.78;;;;;;;16.53;45.36;102009.47;4936980;29;20410;-61
2023/04/08 02:49:39;;;;;;;22.73;6.88;;;;;;;16.54;45.92;102011.22;4952824;28;20043;-62
2023/04/08 02:52:04;;;;;;;14.00;7.18;;;;;;;16.54;45.26;102014.78;4953160;28;20495;-61
2023/04/08 02:54:30;;;;;;;15.30;7.85;;;;;;;16.54;45.90;102017.47;4953692;28;20055;-62
2023/04/08 02:56:55;;;;;;;15.80;7.18;;;;;;;16.52;46.00;102014.03;4951582;28;20031;-62
2023/04/08 02:59:21;;;;;;;23.90;7.75;;;;;;;16.51;46.28;102017.72;4952754;28;20039;-62
2023/04/08 03:01:46;;;;;;;15.57;7.22;;;;;;;16.52;45.66;102013.19;4954014;28;20043;-61
2023/04/08 03:04:11;;;;;;;16.63;7.05;;;;;;;16.52;45.07;102027.56;4953145;29;20100;-62
2023/04/08 03:06:37;;;;;;;18.75;7.68;;;;;;;16.51;45.36;102023.13;4953775;28;20043;-62
2023/04/08 03:09:02;;;;;;;16.73;6.63;;;;;;;16.51;45.17;102023.13;4936568;29;20110;-62
2023/04/08 03:11:28;;;;;;;15.27;8.43;;;;;;;16.48;45.26;102018.00;4936800;29;20031;-62
2023/04/08 03:13:53;;;;;;;20.85;7.65;;;;;;;16.51;45.76;102025.84;4936441;29;20032;-62
2023/04/08 03:16:18;;;;;;;15.13;7.55;;;;;;;16.51;46.57;102022.28;4953052;29;20421;-61
2023/04/08 03:18:44;;;;;;;13.00;6.70;;;;;;;16.50;45.07;102029.53;4968376;28;20066;-62
2023/04/08 03:21:09;;;;;;;19.30;7.65;;;;;;;16.52;45.52;102026.72;4952980;28;20038;-63
2023/04/08 03:23:35;;;;;;;19.65;7.53;;;;;;;16.50;45.20;102021.41;4971885;28;20074;-62
2023/04/08 03:26:00;;;;;;;22.55;8.20;;;;;;;16.53;46.28;102023.88;4957172;28;20494;-62
2023/04/08 03:28:25;;;;;;;18.58;6.75;;;;;;;16.52;44.96;102029.41;4955369;29;20027;-62
2023/04/08 03:30:51;;;;;;;18.08;7.18;;;;;;;16.51;45.60;102016.88;4952724;28;20043;-61
2023/04/08 03:33:16;;;;;;;11.35;6.80;;;;;;;16.52;45.18;102024.00;4953001;28;20096;-62
2023/04/08 03:35:42;;;;;;;16.95;7.13;;;;;;;16.50;45.83;102026.81;4955167;28;20043;-62
2023/04/08 03:38:09;;;;;;;17.13;7.72;;;;;;;16.51;45.12;102033.09;4952452;28;20046;-62
2023/04/08 03:40:34;;;;;;;14.38;6.82;;;;;;;16.50;45.50;102026.00;4936377;28;20027;-62
2023/04/08 03:42:59;;;;;;;15.73;6.55;;;;;;;16.49;45.20;102030.53;4936808;29;20027;-61
2023/04/08 03:45:25;;;;;;;12.60;6.78;;;;;;;16.49;46.00;102030.53;4953184;28;20058;-62
2023/04/08 03:47:50;;;;;;;16.10;7.00;;;;;;;16.47;46.19;102027.09;4936420;29;20067;-62
2023/04/08 03:50:16;;;;;;;17.10;7.10;;;;;;;16.46;45.54;102025.41;4936243;28;20043;-62
2023/04/08 03:52:41;;;;;;;16.77;8.15;;;;;;;16.49;46.19;102029.69;4935945;28;20073;-61
2023/04/08 03:55:07;;;;;;;13.85;7.28;;;;;;;16.48;46.15;102028.81;4953724;28;20062;-62
2023/04/08 03:57:32;;;;;;;19.10;7.47;;;;;;;16.45;46.85;102033.63;4949671;28;20062;-61
2023/04/08 03:59:58;;;;;;;13.30;7.38;;;;;;;16.46;45.68;102027.25;4952107;28;20054;-62
2023/04/08 04:02:24;;;;;;;15.90;7.57;;;;;;;16.45;45.32;102026.38;4953144;28;20043;-61
2023/04/08 04:04:50;;;;;;;15.23;8.20;;;;;;;16.47;46.52;102024.38;4953017;28;20032;-61
2023/04/08 04:07:15;;;;;;;14.10;7.65;;;;;;;16.45;46.51;102034.50;4953741;28;20034;-61
2023/04/08 04:09:41;;;;;;;22.85;7.82;;;;;;;16.46;46.39;102030.81;4953157;28;20418;-62
2023/04/08 04:12:06;;;;;;;18.90;7.57;;;;;;;16.45;45.58;102029.09;4951786;28;20036;-61
2023/04/08 04:14:31;;;;;;;21.92;8.82;;;;;;;16.46;46.90;102027.25;4967817;28;20131;-61
2023/04/08 04:16:57;;;;;;;23.35;8.50;;;;;;;16.44;45.78;102034.66;4951923;28;20031;-62
2023/04/08 04:19:22;;;;;;;15.57;7.57;;;;;;;16.42;45.60;102029.38;4968169;28;20035;-61
2023/04/08 04:21:48;;;;;;;21.80;8.40;;;;;;;16.41;46.01;102033.09;4935664;29;20101;-62
2023/04/08 04:24:14;;;;;;;17.92;8.48;;;;;;;16.41;45.76;102035.78;4953081;28;20039;-61
2023/04/08 04:26:40;;;;;;;18.58;8.73;;;;;;;16.37;46.46;102037.03;4935824;29;20506;-61
2023/04/08 04:29:06;;;;;;;16.70;7.72;;;;;;;16.39;46.76;102045.88;4967438;28;20050;-62
2023/04/08 04:31:31;;;;;;;14.18;7.53;;;;;;;16.41;47.23;102041.19;4952509;28;20483;-62
2023/04/08 04:33:57;;;;;;;23.88;10.13;;;;;;;16.41;47.30;102046.59;4951797;29;20083;-61
2023/04/08 04:36:22;;;;;;;19.58;8.07;;;;;;;16.42;47.21;102047.44;4951221;28;20419;-62
2023/04/08 04:38:48;;;;;;;15.20;7.95;;;;;;;16.41;47.17;102049.31;4951122;28;20391;-62
2023/04/08 04:41:14;;;;;;;23.00;7.80;;;;;;;16.41;46.63;102052.00;4950963;28;20024;-62
2023/04/08 04:43:40;;;;;;;14.90;7.85;;;;;;;16.38;45.85;102049.59;4952352;28;20483;-62
2023/04/08 04:46:07;;;;;;;19.83;8.10;;;;;;;16.37;45.87;102047.84;4953019;28;20031;-62
2023/04/08 04:48:33;;;;;;;17.98;8.07;;;;;;;16.37;46.72;102050.56;4947127;28;20020;-61
2023/04/08 04:51:01;;;;;;;16.80;8.02;;;;;;;16.38;47.20;102054.13;4930966;28;20058;-62
2023/04/08 04:53:27;;;;;;;25.38;9.15;;;;;;;16.37;46.90;102058.69;4931783;29;20066;-61
2023/04/08 04:55:52;;;;;;;20.63;8.45;;;;;;;16.36;45.90;102051.53;4933245;28;20479;-61
2023/04/08 04:58:18;;;;;;;23.00;9.23;;;;;;;16.35;47.18;102057.97;4932260;28;20031;-61
2023/04/08 05:00:43;;;;;;;21.00;9.43;;;;;;;16.34;46.89;102053.53;4931979;28;20039;-63
2023/04/08 05:03:09;;;;;;;17.02;7.88;;;;;;;16.34;46.98;102053.53;4933132;28;20046;-62
2023/04/08 05:05:35;;;;;;;21.48;9.80;;;;;;;16.35;46.88;102063.38;4916059;28;20111;-62
2023/04/08 05:08:00;;;;;;;19.80;8.45;;;;;;;16.36;47.20;102061.53;4931176;28;20086;-61
2023/04/08 05:10:26;;;;;;;19.60;7.78;;;;;;;16.35;45.83;102063.38;4916335;28;20537;-61
2023/04/08 05:12:51;;;;;;;19.30;8.55;;;;;;;16.36;46.05;102067.78;4931959;28;20040;-61
2023/04/08 05:15:16;;;;;;;24.00;8.13;;;;;;;16.36;46.30;102067.78;4947643;28;20115;-61
2023/04/08 05:17:42;;;;;;;18.80;8.38;;;;;;;16.36;46.18;102073.19;4931327;29;20039;-61
2023/04/08 05:20:07;;;;;;;25.63;9.73;;;;;;;16.34;46.68;102075.16;4931458;28;20036;-62
2023/04/08 05:22:33;;;;;;;16.23;7.70;;;;;;;16.37;46.37;102074.03;4932721;28;20102;-61
2023/04/08 05:24:58;;;;;;;25.30;8.80;;;;;;;16.40;45.81;102077.34;4932184;28;20028;-62
2023/04/08 05:27:24;;;;;;;20.90;8.50;;;;;;;16.41;47.33;102086.31;4933197;28;20407;-62
2023/04/08 05:29:51;;;;;;;18.17;8.27;;;;;;;16.41;46.99;102087.19;4932003;28;20039;-62
2023/04/08 05:32:16;;;;;;;19.13;7.82;;;;;;;16.42;47.37;102088.88;4932943;28;20032;-61
2023/04/08 05:34:42;;;;;;;20.48;8.52;;;;;;;16.44;47.02;102086.03;4915600;28;20407;-62
2023/04/08 05:37:08;;;;;;;15.70;7.80;;;;;;;16.44;46.13;102086.03;4916022;28;20032;-62
2023/04/08 05:39:33;;;;;;;20.92;9.48;;;;;;;16.47;46.65;102097.41;4947246;28;20063;-62
2023/04/08 05:41:58;;;;;;;19.85;8.60;;;;;;;16.46;46.73;102090.31;4947294;28;20028;-62
2023/04/08 05:44:24;;;;;;;23.48;9.57;;;;;;;16.51;46.92;102104.28;4931427;28;20032;-61
2023/04/08 05:46:49;;;;;;;25.75;9.35;;;;;;;16.52;45.96;102100.59;4931482;28;20086;-61
2023/04/08 05:49:16;;;;;;;22.13;8.98;;;;;;;16.54;47.06;102104.06;4931790;28;20035;-62
2023/04/08 05:51:41;;;;;;;18.48;8.57;;;;;;;16.58;46.78;102102.75;4931457;28;20062;-62
2023/04/08 05:54:07;;;;;;;24.00;9.23;;;;;;;16.62;45.65;102104.22;4931166;28;20064;-62
2023/04/08 05:56:33;;;;;;;24.75;9.95;;;;;;;16.65;45.77;102112.06;4915480;28;20044;-62
2023/04/08 05:58:59;;;;;;;21.50;9.38;;;;;;;16.72;46.15;102105.09;4932527;28;20464;-61
2023/04/08 06:01:25;;;;;;;17.35;9.18;;;;;;;16.76;46.73;102108.38;4933572;29;20051;-61
2023/04/08 06:03:51;;;;;;;19.92;8.77;;;;;;;16.79;47.05;102116.25;4931708;28;20538;-62
2023/04/08 06:06:17;;;;;;;22.05;8.80;;;;;;;16.80;45.93;102104.44;4932380;28;20054;-61
2023/04/08 06:08:42;;;;;;;19.38;8.63;;;;;;;16.88;46.06;102116.28;4930860;28;20503;-62
2023/04/08 06:11:07;;;;;;;24.55;10.93;;;;;;;16.96;46.91;102114.72;4930959;28;20474;-62
2023/04/08 06:13:37;;;;;;;23.25;9.40;;;;;;;17.01;47.31;102117.84;4915196;28;20043;-61
2023/04/08 06:16:13;;;;;;;27.63;9.52;;;;;;;17.07;46.65;102120.88;4915746;28;20027;-62
2023/04/08 06:18:38;;;;;;;21.33;10.30;;;;;;;17.11;46.69;102122.31;4931012;28;20507;-62
2023/04/08 06:21:04;;;;;;;28.60;11.05;;;;;;;17.13;46.84;102122.16;4917792;29;20036;-61
2023/04/08 06:23:30;;;;;;;20.30;10.13;;;;;;;17.15;46.61;102120.16;4935501;28;20047;-62
2023/04/08 06:25:55;;;;;;;21.85;9.60;;;;;;;17.17;46.50;102129.03;4934063;28;20496;-62
2023/04/08 06:28:20;;;;;;;23.83;10.45;;;;;;;17.20;46.92;102135.00;4950479;28;20081;-62
2023/04/08 06:30:46;;;;;;;32.70;10.80;;;;;;;17.21;46.79;102135.84;4918596;28;20031;-62
2023/04/08 06:33:11;;;;;;;24.15;10.23;;;;;;;17.15;46.62;102131.84;4935573;28;20052;-62
2023/04/08 06:35:37;;;;;;;24.17;10.07;;;;;;;17.21;46.08;102141.28;4934533;29;20043;-62
2023/04/08 06:38:02;;;;;;;27.40;11.25;;;;;;;17.21;46.67;102146.69;4918023;28;20040;-62
2023/04/08 06:40:28;;;;;;;23.08;9.30;;;;;;;17.22;46.71;102145.69;4935473;29;20066;-62
2023/04/08 06:42:54;;;;;;;28.65;10.88;;;;;;;17.23;46.67;102158.22;4918006;28;20032;-62
2023/04/08 06:45:20;;;;;;;25.05;9.98;;;;;;;17.23;47.44;102150.09;4933959;28;20040;-62
2023/04/08 06:47:45;;;;;;;25.55;11.07;;;;;;;17.24;46.25;102151.81;4917062;29;20146;-64
2023/04/08 06:50:11;;;;;;;35.00;11.95;;;;;;;17.26;46.90;102152.53;4933779;28;20032;-63
2023/04/08 06:52:36;;;;;;;29.02;10.93;;;;;;;17.28;46.09;102153.28;4917798;28;20066;-64
2023/04/08 06:55:01;;;;;;;25.38;10.45;;;;;;;17.30;46.14;102159.41;4934144;28;20020;-62
2023/04/08 06:57:27;;;;;;;30.52;11.88;;;;;;;17.32;46.29;102160.09;4933837;28;20159;-62
2023/04/08 06:59:53;;;;;;;28.20;9.98;;;;;;;17.29;46.30;102154.97;4933907;28;20106;-62
2023/04/08 07:02:19;;;;;;;22.17;10.45;;;;;;;17.37;46.67;102174.06;4918704;28;20046;-62
2023/04/08 07:04:44;;;;;;;28.50;12.13;;;;;;;17.39;47.28;102162.09;4902123;28;20128;-63
2023/04/08 07:07:10;;;;;;;24.38;10.70;;;;;;;17.42;46.06;102171.78;4934178;28;20042;-63
2023/04/08 07:09:35;;;;;;;23.42;10.95;;;;;;;17.51;46.49;102168.25;4933997;29;20043;-63
2023/04/08 07:12:03;;;;;;;26.42;10.82;;;;;;;17.64;45.52;102168.88;4933584;28;20035;-63
2023/04/08 07:14:28;;;;;;;28.67;11.23;;;;;;;17.87;45.77;102167.56;4933642;28;20440;-63
2023/04/08 07:16:55;;;;;;;27.15;12.25;;;;;;;18.10;45.95;102168.13;4933346;28;20562;-63
2023/04/08 07:19:21;;;;;;;27.13;11.18;;;;;;;18.17;46.04;102163.00;4934880;29;20462;-62
2023/04/08 07:21:47;;;;;;;31.02;12.38;;;;;;;18.22;45.93;102172.41;4933106;29;20074;-63
2023/04/08 07:24:13;;;;;;;27.20;11.35;;;;;;;18.39;45.43;102181.66;4934475;28;20036;-63
2023/04/08 07:26:38;;;;;;;31.50;11.23;;;;;;;18.55;45.79;102169.19;4933221;28;20046;-63
2023/04/08 07:29:04;;;;;;;23.33;11.02;;;;;;;18.53;45.45;102181.22;4901529;28;20031;-63
2023/04/08 07:31:29;;;;;;;27.30;11.52;;;;;;;18.51;45.48;102191.34;4933042;28;20487;-64
2023/04/08 07:33:55;;;;;;;25.33;11.65;;;;;;;18.52;46.16;102190.34;4933553;28;20051;-63
2023/04/08 07:36:20;;;;;;;22.98;11.23;;;;;;;18.56;45.54;102191.78;4917806;28;20043;-63
2023/04/08 07:38:46;;;;;;;27.42;10.93;;;;;;;18.67;45.49;102194.31;4938022;28;20047;-63
2023/04/08 07:41:11;;;;;;;22.42;10.40;;;;;;;18.65;45.95;102190.84;4935809;28;20043;-63
2023/04/08 07:43:37;;;;;;;22.40;9.90;;;;;;;18.62;46.21;102191.16;4917825;28;20023;-63
2023/04/08 07:46:04;;;;;;;20.77;10.55;;;;;;;18.59;45.40;102194.19;4917591;29;20032;-65
2023/04/08 07:48:30;;;;;;;21.75;10.15;;;;;;;18.56;45.91;102197.19;4932872;28;20043;-63
2023/04/08 07:50:56;;;;;;;24.55;9.70;;;;;;;18.55;45.85;102200.91;4933004;28;20077;-63
2023/04/08 07:53:23;;;;;;;24.90;10.73;;;;;;;18.55;45.53;102203.63;4932649;28;20044;-63
2023/04/08 07:55:49;;;;;;;31.40;11.68;;;;;;;18.50;45.56;102198.66;4917184;28;20419;-65
2023/04/08 07:58:15;;;;;;;24.42;10.00;;;;;;;18.55;45.48;102209.91;4934208;29;20032;-65
2023/04/08 08:00:40;;;;;;;21.33;9.55;;;;;;;18.56;46.08;102203.47;4967686;28;20130;-66
2023/04/08 08:03:06;;;;;;;24.10;10.27;;;;;;;18.59;46.03;102205.06;4951749;28;20031;-65
2023/04/08 08:05:31;;;;;;;31.30;11.30;;;;;;;18.62;45.56;102202.00;4935907;28;20038;-64
2023/04/08 08:07:56;;;;;;;21.65;10.45;;;;;;;18.69;45.11;102214.00;4935569;28;20050;-65
2023/04/08 08:10:22;;;;;;;25.92;11.23;;;;;;;18.73;45.87;102215.44;4968007;28;20081;-64
2023/04/08 08:12:47;;;;;;;28.48;11.27;;;;;;;18.75;46.45;102213.41;4951565;28;20074;-65
2023/04/08 08:15:13;;;;;;;29.08;11.35;;;;;;;18.77;45.13;102216.84;4935609;28;20046;-65
2023/04/08 08:17:39;;;;;;;24.27;10.65;;;;;;;18.78;45.46;102218.56;4951617;28;20131;-65
2023/04/08 08:20:06;;;;;;;24.30;11.30;;;;;;;18.71;45.43;102220.13;4951322;28;20043;-65
2023/04/08 08:22:31;;;;;;;27.20;11.07;;;;;;;18.70;45.33;102221.16;4952126;28;20407;-65
2023/04/08 08:24:57;;;;;;;25.63;12.00;;;;;;;18.71;45.37;102224.69;4952329;29;20487;-65
2023/04/08 08:27:23;;;;;;;24.55;11.50;;;;;;;18.71;45.41;102222.84;4951955;28;20032;-65
2023/04/08 08:29:49;;;;;;;28.10;12.30;;;;;;;18.70;45.49;102229.31;4951781;28;20077;-65
2023/04/08 08:32:14;;;;;;;25.17;11.00;;;;;;;18.73;45.73;102226.28;4952573;28;20402;-65
2023/04/08 08:34:40;;;;;;;23.55;11.13;;;;;;;18.90;45.25;102228.22;4952559;28;20036;-65
2023/04/08 08:37:05;;;;;;;28.23;12.18;;;;;;;19.24;44.71;102214.03;4951786;28;20544;-64
2023/04/08 08:39:30;;;;;;;20.52;10.60;;;;;;;19.48;44.48;102219.81;4919446;28;20468;-66
2023/04/08 08:41:56;;;;;;;26.13;10.85;;;;;;;19.69;44.38;102226.66;4966809;28;20043;-65
2023/04/08 08:44:22;;;;;;;24.80;10.23;;;;;;;20.23;43.61;102236.53;4951205;28;20448;-66
2023/04/08 08:46:47;;;;;;;20.52;9.15;;;;;;;20.83;43.77;102228.44;4951558;28;20062;-66
2023/04/08 08:49:13;;;;;;;25.10;11.45;;;;;;;20.86;43.38;102222.69;4935747;28;20394;-66
2023/04/08 08:51:39;;;;;;;25.58;10.45;;;;;;;20.96;43.87;102228.03;4935249;28;20035;-66
2023/04/08 08:54:04;;;;;;;27.40;10.80;;;;;;;21.01;43.61;102231.97;4952088;28;20058;-65
2023/04/08 08:56:32;;;;;;;29.70;10.10;;;;;;;20.98;43.91;102232.28;4967103;28;20051;-64
2023/04/08 08:58:57;;;;;;;19.77;9.70;;;;;;;20.95;44.22;102231.75;4952116;28;20031;-65
2023/04/08 09:01:36;;;;;;;24.60;9.82;;;;;;;20.81;43.87;102233.22;4935399;28;20145;-65
2023/04/08 09:04:17;;;;;;;19.73;8.85;;;;;;;20.65;44.08;102238.56;4935185;28;20074;-65
2023/04/08 09:06:43;;;;;;;17.23;8.43;;;;;;;20.51;43.96;102245.44;4935133;28;20062;-65
2023/04/08 09:09:09;;;;;;;17.77;8.20;;;;;;;20.43;44.24;102236.38;4919278;28;20039;-65
2023/04/08 09:11:35;;;;;;;17.63;7.80;;;;;;;20.39;44.03;102234.97;4950909;28;20036;-66
2023/04/08 09:14:01;;;;;;;16.65;7.13;;;;;;;20.45;43.57;102245.22;4951175;28;20043;-65
2023/04/08 09:16:26;;;;;;;16.85;7.03;;;;;;;20.48;43.99;102242.19;4952958;28;20027;-65
2023/04/08 09:18:52;;;;;;;15.75;6.97;;;;;;;20.56;43.24;102242.25;4967179;28;20055;-65
2023/04/08 09:21:21;;;;;;;13.75;6.65;;;;;;;20.67;42.65;102247.41;4950759;28;20043;-65
2023/04/08 09:23:49;;;;;;;14.15;6.72;;;;;;;20.84;42.42;102241.06;4950621;28;20034;-65
2023/04/08 09:26:21;;;;;;;14.73;6.97;;;;;;;20.99;42.69;102242.19;4935211;28;20387;-66
2023/04/08 09:29:02;;;;;;;17.73;8.33;;;;;;;20.96;42.96;102247.94;4934711;28;20023;-65
2023/04/08 09:31:32;;;;;;;15.02;8.05;;;;;;;20.91;43.13;102247.56;4952302;28;20062;-65
2023/04/08 09:34:01;;;;;;;17.50;9.00;;;;;;;20.93;42.63;102248.28;4935123;29;20391;-65
2023/04/08 09:36:27;;;;;;;16.55;8.70;;;;;;;20.99;41.97;102249.50;4935287;28;20122;-65
2023/04/08 09:38:54;;;;;;;21.80;10.93;;;;;;;21.31;42.59;102255.97;4950501;28;20035;-65
2023/04/08 09:41:20;;;;;;;21.58;9.77;;;;;;;21.82;41.89;102254.09;4950684;28;20495;-66
2023/04/08 09:43:53;;;;;;;19.45;10.18;;;;;;;22.31;40.64;102253.13;4951884;28;20031;-66
2023/04/08 09:46:33;;;;;;;17.33;8.20;;;;;;;22.27;41.12;102253.66;4951100;28;20031;-66
2023/04/08 09:49:26;;;;;;;18.67;9.93;;;;;;;22.36;40.86;102250.75;4950922;29;20127;-66
2023/04/08 09:52:07;;;;;;;18.38;9.20;;;;;;;24.65;38.71;102252.03;4967969;28;20502;-67
2023/04/08 09:54:59;;;;;;;18.25;10.48;;;;;;;24.53;38.26;102248.06;4952517;28;20051;-66
2023/04/08 09:57:52;;;;;;;20.90;11.30;;;;;;;24.38;39.41;102244.44;4954862;28;20066;-66
2023/04/08 10:00:17;;;;;;;23.38;9.77;;;;;;;24.34;39.50;102259.53;4954090;28;20042;-66
2023/04/08 10:03:18;;;;;;;18.77;9.88;;;;;;;24.04;39.54;102252.19;4937845;28;20031;-66
2023/04/08 10:05:45;;;;;;;18.17;9.57;;;;;;;23.84;39.59;102251.84;4996834;28;20035;-66
2023/04/08 10:08:10;;;;;;;16.90;9.05;;;;;;;24.67;39.09;102249.13;4954079;28;20051;-66
2023/04/08 10:10:38;;;;;;;18.42;9.13;;;;;;;24.92;38.49;102247.84;4953827;28;20533;-67
2023/04/08 10:13:04;;;;;;;17.50;8.82;;;;;;;24.62;39.30;102252.41;4953995;29;20031;-66
2023/04/08 10:15:30;;;;;;;18.15;9.70;;;;;;;25.44;37.62;102248.56;4953510;28;20039;-68
2023/04/08 10:18:03;;;;;;;20.75;10.48;;;;;;;26.34;36.17;102245.38;4953466;28;20070;-71
2023/04/08 10:20:34;;;;;;;17.48;9.60;;;;;;;26.38;36.76;102235.69;4954550;28;20043;-70
2023/04/08 10:23:26;;;;;;;17.73;9.55;;;;;;;26.19;36.94;102247.34;4954655;28;20085;-66
2023/04/08 10:25:52;;;;;;;18.00;9.45;;;;;;;25.96;37.19;102242.84;4972856;28;20031;-66
2023/04/08 10:28:21;;;;;;;17.25;9.48;;;;;;;26.33;36.17;102243.66;4937806;28;20034;-66
2023/04/08 10:30:50;;;;;;;16.80;8.98;;;;;;;27.26;35.21;102238.63;4954437;28;20039;-67
2023/04/08 10:33:29;;;;;;;18.02;9.52;;;;;;;27.08;34.89;102241.91;4952913;28;20376;-67
2023/04/08 10:36:10;;;;;;;18.23;9.57;;;;;;;26.55;35.57;102242.56;4952997;28;20039;-66
2023/04/08 10:38:37;;;;;;;16.75;9.30;;;;;;;27.12;35.53;102245.97;4953185;28;20415;-67
2023/04/08 10:41:03;;;;;;;17.45;9.43;;;;;;;28.01;34.59;102232.97;4937027;28;20032;-67
2023/04/08 10:43:35;;;;;;;16.45;8.93;;;;;;;27.28;34.77;102222.75;4953557;28;20023;-67
2023/04/08 10:46:01;;;;;;;14.93;9.15;;;;;;;26.68;36.00;102231.69;4953687;29;20131;-66
2023/04/08 10:48:29;;;;;;;16.42;8.60;;;;;;;26.26;35.99;102229.03;4953200;28;20470;-66
2023/04/08 10:50:55;;;;;;;16.27;8.98;;;;;;;25.98;36.43;102229.81;4953175;28;20525;-66
2023/04/08 10:53:38;;;;;;;18.23;8.45;;;;;;;25.68;36.14;102230.09;4953246;28;20064;-66
2023/04/08 10:56:05;;;;;;;16.83;8.45;;;;;;;25.84;35.65;102227.97;4953307;28;20031;-66
2023/04/08 10:58:30;;;;;;;20.80;9.52;;;;;;;27.00;34.82;102222.81;4952938;28;20027;-67
2023/04/08 11:01:05;;;;;;;16.73;9.18;;;;;;;27.51;33.80;102212.31;4937713;28;20185;-67
2023/04/08 11:03:32;;;;;;;16.65;9.23;;;;;;;27.95;34.41;102217.28;4952952;28;20039;-67
2023/04/08 11:05:58;;;;;;;16.88;9.30;;;;;;;27.27;33.97;102217.47;4936276;28;20041;-66
2023/04/08 11:08:28;;;;;;;14.65;8.45;;;;;;;27.07;34.27;102220.97;4952628;28;20402;-66
2023/04/08 11:10:54;;;;;;;13.77;8.13;;;;;;;26.98;33.94;102224.94;4952608;28;20436;-67
2023/04/08 11:13:21;;;;;;;18.65;9.35;;;;;;;26.98;34.01;102222.19;4954226;28;20503;-66
2023/04/08 11:15:47;;;;;;;15.65;9.40;;;;;;;27.98;32.87;102216.84;4953706;28;20118;-67